createdAt,value
2019-01-23T00:02:12.914Z,99973.95
2019-01-23T00:04:44.216Z,99975.11
2019-01-23T00:07:15.432Z,99974.06
2019-01-23T00:09:46.787Z,99970.86
2019-01-23T00:12:18.106Z,99968.13
2019-01-23T00:14:49.382Z,99968.90
2019-01-23T00:17:20.701Z,99969.52
2019-01-23T00:19:51.928Z,99969.00
2019-01-23T00:22:23.210Z,99963.60
2019-01-23T00:24:54.482Z,99964.88
2019-01-23T00:27:25.829Z,99960.36
2019-01-23T00:29:57.111Z,99962.02
2019-01-23T00:32:28.569Z,99953.80
2019-01-23T00:34:59.771Z,99955.09
2019-01-23T00:37:31.031Z,99955.45
2019-01-23T00:40:02.314Z,99955.33
2019-01-23T00:42:33.540Z,99949.92
2019-01-23T00:45:05.559Z,99949.38
2019-01-23T00:47:36.976Z,99942.69
2019-01-23T00:50:08.989Z,99942.15
2019-01-23T00:52:40.244Z,99943.67
2019-01-23T00:55:12.703Z,99939.55
2019-01-23T00:57:43.994Z,99943.27
2019-01-23T01:00:23.289Z,99938.74
2019-01-23T01:02:54.800Z,99931.69
2019-01-23T01:05:25.944Z,99937.19
2019-01-23T01:07:57.153Z,99938.58
2019-01-23T01:10:28.592Z,99942.30
2019-01-23T01:12:59.908Z,99941.62
2019-01-23T01:15:31.131Z,99941.48
2019-01-23T01:18:02.381Z,99936.58
2019-01-23T01:20:33.623Z,99934.63
2019-01-23T01:23:05.013Z,99940.54
2019-01-23T01:25:36.360Z,99941.69
2019-01-23T01:28:07.653Z,99937.53
2019-01-23T01:30:38.968Z,99944.72
2019-01-23T01:33:10.238Z,99944.95
2019-01-23T01:35:41.553Z,99946.48
2019-01-23T01:38:12.827Z,99940.84
2019-01-23T01:40:44.128Z,99936.68
2019-01-23T01:43:15.375Z,99932.32
2019-01-23T01:45:46.592Z,99931.78
2019-01-23T01:48:17.874Z,99934.58
2019-01-23T01:50:49.191Z,99935.36
2019-01-23T01:53:20.597Z,99934.31
2019-01-23T01:55:51.914Z,99932.11
2019-01-23T01:58:23.259Z,99925.70
2019-01-23T02:00:54.627Z,99930.69
2019-01-23T02:03:25.958Z,99926.34
2019-01-23T02:05:57.255Z,99923.23
2019-01-23T02:08:28.516Z,99919.92
2019-01-23T02:10:59.894Z,99918.50
2019-01-23T02:13:31.107Z,99922.72
2019-01-23T02:16:02.372Z,99913.98
2019-01-23T02:18:33.697Z,99917.45
2019-01-23T02:21:04.955Z,99930.28
2019-01-23T02:23:36.125Z,99923.73
2019-01-23T02:26:07.360Z,99921.54
2019-01-23T02:28:38.799Z,99911.14
2019-01-23T02:31:10.354Z,99910.59
2019-01-23T02:33:41.539Z,99906.24
2019-01-23T02:36:12.744Z,99903.81
2019-01-23T02:38:44.007Z,99899.28
2019-01-23T02:41:15.336Z,99894.66
2019-01-23T02:43:46.652Z,99897.45
2019-01-23T02:46:17.861Z,99905.89
2019-01-23T02:48:49.165Z,99898.06
2019-01-23T02:51:20.476Z,99892.25
2019-01-23T02:53:51.773Z,99895.22
2019-01-23T02:56:23.101Z,99891.20
2019-01-23T02:58:54.333Z,99893.27
2019-01-23T03:01:25.616Z,99889.41
2019-01-23T03:03:56.920Z,99887.63
2019-01-23T03:06:28.222Z,99887.63
2019-01-23T03:08:59.568Z,99884.14
2019-01-23T03:11:31.875Z,99880.67
2019-01-23T03:14:03.131Z,99878.87
2019-01-23T03:16:34.437Z,99884.38
2019-01-23T03:19:05.921Z,99879.98
2019-01-23T03:21:37.320Z,99882.42
2019-01-23T03:24:08.865Z,99883.70
2019-01-23T03:26:40.178Z,99883.70
2019-01-23T03:29:11.447Z,99878.06
2019-01-23T03:31:42.783Z,99883.56
2019-01-23T03:34:13.987Z,99882.01
2019-01-23T03:36:45.305Z,99879.54
2019-01-23T03:39:16.538Z,99880.69
2019-01-23T03:41:47.775Z,99878.72
2019-01-23T03:44:19.317Z,99874.33
2019-01-23T03:46:50.632Z,99872.78
2019-01-23T03:49:21.892Z,99876.34
2019-01-23T03:51:54.155Z,99876.72
2019-01-23T03:54:25.461Z,99880.80
2019-01-23T03:56:56.814Z,99881.16
2019-01-23T03:59:32.178Z,99879.87
2019-01-23T04:02:01.453Z,99876.44
2019-01-23T04:04:32.707Z,99878.09
2019-01-23T04:07:04.113Z,99874.25
2019-01-23T04:09:35.408Z,99871.68
2019-01-23T04:12:06.604Z,99867.84
2019-01-23T04:14:37.976Z,99873.33
2019-01-23T04:17:09.202Z,99875.53
2019-01-23T04:19:40.382Z,99869.35
2019-01-23T04:22:11.612Z,99871.00
2019-01-23T04:24:42.951Z,99873.20
2019-01-23T04:27:14.174Z,99873.56
2019-01-23T04:29:45.459Z,99871.23
2019-01-23T04:32:16.753Z,99865.46
2019-01-23T04:34:48.000Z,99876.99
2019-01-23T04:37:19.227Z,99868.12
2019-01-23T04:39:50.538Z,99874.66
2019-01-23T04:42:21.780Z,99872.33
2019-01-23T04:44:53.143Z,99870.54
2019-01-23T04:47:24.418Z,99866.70
2019-01-23T04:49:55.820Z,99867.44
2019-01-23T04:52:51.838Z,99872.05
2019-01-23T04:55:23.104Z,99870.77
2019-01-23T04:57:54.410Z,99863.31
2019-01-23T05:00:27.051Z,99863.91
2019-01-23T05:02:58.542Z,99864.91
2019-01-23T05:05:29.826Z,99866.56
2019-01-23T05:08:01.079Z,99865.14
2019-01-23T05:10:32.341Z,99868.08
2019-01-23T05:13:03.668Z,99863.19
2019-01-23T05:15:34.942Z,99865.38
2019-01-23T05:18:06.184Z,99866.15
2019-01-23T05:20:37.552Z,99871.02
2019-01-23T05:23:08.816Z,99867.94
2019-01-23T05:25:40.366Z,99862.45
2019-01-23T05:28:11.626Z,99872.70
2019-01-23T05:30:42.849Z,99872.70
2019-01-23T05:33:14.121Z,99875.26
2019-01-23T05:35:45.470Z,99876.91
2019-01-23T05:38:16.721Z,99872.55
2019-01-23T05:40:47.955Z,99873.66
2019-01-23T05:43:19.223Z,99874.94
2019-01-23T05:45:50.491Z,99875.72
2019-01-23T05:48:21.720Z,99873.66
2019-01-23T05:50:52.935Z,99874.20
2019-01-23T05:53:24.148Z,99870.73
2019-01-23T05:55:55.341Z,99882.41
2019-01-23T05:58:26.639Z,99869.59
2019-01-23T06:00:57.862Z,99875.99
2019-01-23T06:03:29.274Z,99878.56
2019-01-23T06:06:00.552Z,99877.28
2019-01-23T06:08:31.847Z,99875.12
2019-01-23T06:11:03.138Z,99877.14
2019-01-23T06:13:34.383Z,99883.91
2019-01-23T06:16:05.549Z,99882.13
2019-01-23T06:18:36.899Z,99884.17
2019-01-23T06:21:08.137Z,99886.73
2019-01-23T06:23:39.365Z,99887.48
2019-01-23T06:26:10.629Z,99890.58
2019-01-23T06:28:41.816Z,99894.42
2019-01-23T06:31:13.075Z,99887.25
2019-01-23T06:33:44.982Z,99890.18
2019-01-23T06:36:16.427Z,99895.45
2019-01-23T06:38:47.643Z,99890.73
2019-01-23T06:41:18.930Z,99896.22
2019-01-23T06:43:50.173Z,99892.38
2019-01-23T06:46:21.370Z,99891.87
2019-01-23T06:48:52.711Z,99893.52
2019-01-23T06:51:23.932Z,99892.74
2019-01-23T06:53:55.790Z,99898.41
2019-01-23T06:56:27.033Z,99896.22
2019-01-23T06:58:58.365Z,99892.88
2019-01-23T07:01:29.549Z,99903.68
2019-01-23T07:04:00.814Z,99895.45
2019-01-23T07:06:32.000Z,99901.11
2019-01-23T07:09:04.753Z,99898.69
2019-01-23T07:11:35.929Z,99903.82
2019-01-23T07:14:07.181Z,99901.25
2019-01-23T07:16:38.424Z,99906.75
2019-01-23T07:19:09.635Z,99903.82
2019-01-23T07:21:40.851Z,99902.03
2019-01-23T07:24:12.122Z,99899.97
2019-01-23T07:26:43.441Z,99909.31
2019-01-23T07:29:14.677Z,99904.19
2019-01-23T07:31:45.866Z,99902.17
2019-01-23T07:34:17.064Z,99905.78
2019-01-23T07:36:48.331Z,99907.44
2019-01-23T07:39:19.651Z,99908.34
2019-01-23T07:41:50.937Z,99911.42
2019-01-23T07:44:22.157Z,99921.95
2019-01-23T07:46:53.566Z,99918.11
2019-01-23T07:49:24.848Z,99912.02
2019-01-23T07:51:56.330Z,99909.08
2019-01-23T07:54:27.550Z,99919.98
2019-01-23T07:56:58.770Z,99923.59
2019-01-23T07:59:30.013Z,99912.06
2019-01-23T08:02:01.247Z,99913.12
2019-01-23T08:04:32.627Z,99920.58
2019-01-23T08:07:03.830Z,99918.02
2019-01-23T08:09:35.177Z,99913.16
2019-01-23T08:12:10.672Z,99918.06
2019-01-23T08:14:39.426Z,99916.18
2019-01-23T08:17:10.544Z,99915.95
2019-01-23T08:19:41.792Z,99917.37
2019-01-23T08:22:13.095Z,99920.75
2019-01-23T08:24:44.503Z,99916.64
2019-01-23T08:27:15.849Z,99915.67
2019-01-23T08:29:47.198Z,99911.59
2019-01-23T08:32:18.479Z,99904.04
2019-01-23T08:34:49.795Z,99907.42
2019-01-23T08:37:21.116Z,99902.06
2019-01-23T08:39:52.453Z,99900.69
2019-01-23T08:42:23.761Z,99897.61
2019-01-23T08:44:55.133Z,99899.72
2019-01-23T08:47:26.520Z,99895.40
2019-01-23T08:49:57.801Z,99900.80
2019-01-23T08:52:29.126Z,99899.96
2019-01-23T08:55:00.442Z,99900.64
2019-01-23T08:57:32.010Z,99897.20
2019-01-23T09:00:03.368Z,99899.80
2019-01-23T09:02:34.539Z,99899.87
2019-01-23T09:05:07.029Z,99904.66
2019-01-23T09:07:38.480Z,99907.64
2019-01-23T09:10:13.482Z,99904.97
2019-01-23T09:12:44.902Z,99910.54
2019-01-23T09:15:16.617Z,99911.31
2019-01-23T09:17:47.918Z,99907.90
2019-01-23T09:20:19.306Z,99903.57
2019-01-23T09:22:50.678Z,99909.89
2019-01-23T09:25:23.448Z,99905.55
2019-01-23T09:27:54.733Z,99906.09
2019-01-23T09:30:34.943Z,99911.66
2019-01-23T09:33:38.710Z,99906.91
2019-01-23T09:36:59.883Z,99913.23
2019-01-23T09:40:11.910Z,99912.14
2019-01-23T09:43:14.769Z,99908.84
2019-01-23T09:46:25.897Z,99903.35
2019-01-23T09:49:12.943Z,99910.30
2019-01-23T09:52:36.444Z,99906.47
2019-01-23T09:55:09.608Z,99905.23
2019-01-23T09:57:50.969Z,99908.31
2019-01-23T10:00:27.643Z,99898.33
2019-01-23T10:02:59.050Z,99907.34
2019-01-23T10:05:30.279Z,99904.03
2019-01-23T10:08:01.530Z,99908.66
2019-01-23T10:10:33.247Z,99902.27
2019-01-23T10:13:05.491Z,99907.42
2019-01-23T10:16:05.559Z,99907.68
2019-01-23T10:18:36.754Z,99903.70
2019-01-23T10:21:08.031Z,99910.68
2019-01-23T10:23:40.396Z,99907.98
2019-01-23T10:26:11.602Z,99908.52
2019-01-23T10:28:42.901Z,99905.42
2019-01-23T10:31:14.274Z,99899.90
2019-01-23T10:33:45.600Z,99901.98
2019-01-23T10:36:17.005Z,99898.91
2019-01-23T10:38:48.217Z,99892.84
2019-01-23T10:41:19.577Z,99890.81
2019-01-23T10:43:50.927Z,99892.64
2019-01-23T10:46:22.273Z,99877.56
2019-01-23T10:48:53.465Z,99879.77
2019-01-23T10:51:24.926Z,99874.23
2019-01-23T10:53:56.310Z,99866.13
2019-01-23T10:56:27.543Z,99864.33
2019-01-23T10:58:58.897Z,99869.09
2019-01-23T11:01:30.063Z,99864.73
2019-01-23T11:04:01.315Z,99862.77
2019-01-23T11:06:32.513Z,99860.59
2019-01-23T11:09:05.425Z,99858.92
2019-01-23T11:11:36.879Z,99860.20
2019-01-23T11:14:08.272Z,99857.61
2019-01-23T11:16:39.586Z,99859.30
2019-01-23T11:19:10.775Z,99861.85
2019-01-23T11:21:44.476Z,99864.03
2019-01-23T11:24:15.745Z,99859.77
2019-01-23T11:26:47.093Z,99860.12
2019-01-23T11:29:19.363Z,99860.91
2019-01-23T11:31:50.818Z,99866.56
2019-01-23T11:34:22.091Z,99859.08
2019-01-23T11:36:53.388Z,99859.84
2019-01-23T11:39:24.701Z,99866.03
2019-01-23T11:41:56.083Z,99865.77
2019-01-23T11:44:27.409Z,99865.13
2019-01-23T11:46:58.627Z,99866.00
2019-01-23T11:49:29.846Z,99861.76
2019-01-23T11:52:01.136Z,99860.09
2019-01-23T11:54:32.516Z,99860.97
2019-01-23T11:57:03.692Z,99852.85
2019-01-23T11:59:35.088Z,99853.77
2019-01-23T12:02:06.473Z,99854.27
2019-01-23T12:04:37.647Z,99849.89
2019-01-23T12:07:08.924Z,99851.42
2019-01-23T12:09:40.111Z,99847.29
2019-01-23T12:12:11.449Z,99846.39
2019-01-23T12:14:42.658Z,99844.84
2019-01-23T12:17:13.929Z,99851.25
2019-01-23T12:19:45.154Z,99851.48
2019-01-23T12:22:16.478Z,99852.63
2019-01-23T12:24:47.765Z,99859.47
2019-01-23T12:27:18.940Z,99855.06
2019-01-23T12:29:50.201Z,99849.23
2019-01-23T12:32:21.466Z,99851.92
2019-01-23T12:34:52.689Z,99851.92
2019-01-23T12:37:23.991Z,99855.95
2019-01-23T12:39:55.398Z,99863.80
2019-01-23T12:42:26.697Z,99859.25
2019-01-23T12:44:57.882Z,99855.77
2019-01-23T12:47:29.152Z,99857.28
2019-01-23T12:50:01.113Z,99859.33
2019-01-23T12:52:32.748Z,99856.22
2019-01-23T12:55:05.020Z,99854.89
2019-01-23T12:57:36.289Z,99857.06
2019-01-23T13:00:10.685Z,99851.36
2019-01-23T13:02:42.346Z,99854.28
2019-01-23T13:05:14.868Z,99851.16
2019-01-23T13:07:46.355Z,99857.31
2019-01-23T13:10:18.768Z,99856.66
2019-01-23T13:12:50.144Z,99853.81
2019-01-23T13:15:23.284Z,99860.88
2019-01-23T13:17:54.931Z,99860.88
2019-01-23T13:20:26.449Z,99856.13
2019-01-23T13:22:57.684Z,99851.34
2019-01-23T13:25:29.721Z,99859.09
2019-01-23T13:28:02.309Z,99856.28
2019-01-23T13:30:33.610Z,99857.31
2019-01-23T13:33:04.773Z,99855.41
2019-01-23T13:35:38.175Z,99862.52
2019-01-23T13:38:15.519Z,99863.58
2019-01-23T13:40:46.805Z,99871.06
2019-01-23T13:43:18.158Z,99879.48
2019-01-23T13:45:49.437Z,99876.38
2019-01-23T13:48:20.748Z,99884.23
2019-01-23T13:50:52.107Z,99883.86
2019-01-23T13:53:23.410Z,99887.23
2019-01-23T13:55:54.800Z,99888.00
2019-01-23T13:58:26.333Z,99881.31
2019-01-23T14:00:57.850Z,99886.36
2019-01-23T14:03:29.191Z,99884.80
2019-01-23T14:06:00.574Z,99890.77
2019-01-23T14:08:31.855Z,99895.92
2019-01-23T14:11:03.148Z,99894.75
2019-01-23T14:13:34.454Z,99903.90
2019-01-23T14:16:06.119Z,99897.45
2019-01-23T14:18:37.502Z,99896.69
2019-01-23T14:21:08.911Z,99898.85
2019-01-23T14:23:40.418Z,99901.05
2019-01-23T14:26:11.825Z,99900.67
2019-01-23T14:28:43.119Z,99908.03
2019-01-23T14:31:14.486Z,99901.17
2019-01-23T14:33:46.124Z,99908.42
2019-01-23T14:36:17.525Z,99905.84
2019-01-23T14:38:48.983Z,99908.03
2019-01-23T14:41:20.218Z,99908.65
2019-01-23T14:43:51.466Z,99914.22
2019-01-23T14:46:23.506Z,99912.41
2019-01-23T14:48:55.093Z,99912.67
2019-01-23T14:51:26.488Z,99917.60
2019-01-23T14:53:57.753Z,99915.55
2019-01-23T14:56:28.993Z,99916.61
2019-01-23T14:59:01.122Z,99922.79
2019-01-23T15:01:32.579Z,99926.05
2019-01-23T15:04:03.789Z,99925.78
2019-01-23T15:06:35.246Z,99928.36
2019-01-23T15:09:08.291Z,99933.67
2019-01-23T15:11:39.604Z,99936.02
2019-01-23T15:14:10.891Z,99935.78
2019-01-23T15:16:42.267Z,99942.22
2019-01-23T15:19:13.656Z,99942.90
2019-01-23T15:21:45.046Z,99949.34
2019-01-23T15:24:16.311Z,99949.24
2019-01-23T15:26:47.686Z,99949.00
2019-01-23T15:29:18.971Z,99951.31
2019-01-23T15:31:50.246Z,99952.62
2019-01-23T15:34:21.504Z,99958.30
2019-01-23T15:36:52.886Z,99962.18
2019-01-23T15:39:24.185Z,99968.27
2019-01-23T15:41:55.528Z,99975.09
2019-01-23T15:44:27.082Z,99975.08
2019-01-23T15:46:58.422Z,99982.95
2019-01-23T15:49:29.641Z,99976.14
2019-01-23T15:52:00.929Z,99976.52
2019-01-23T15:54:32.379Z,99977.82
2019-01-23T15:57:03.799Z,99975.47
2019-01-23T15:59:35.056Z,99973.03
2019-01-23T16:02:06.467Z,99989.25
2019-01-23T16:04:37.673Z,99984.35
2019-01-23T16:07:09.009Z,99981.77
2019-01-23T16:09:41.291Z,99988.22
2019-01-23T16:12:12.588Z,99987.43
2019-01-23T16:14:44.379Z,99993.99
2019-01-23T16:17:15.820Z,100000.02
2019-01-23T16:19:47.370Z,99999.27
2019-01-23T16:22:18.683Z,100011.09
2019-01-23T16:24:49.891Z,100009.39
2019-01-23T16:27:21.658Z,100013.13
2019-01-23T16:29:52.860Z,100013.13
2019-01-23T16:32:31.283Z,100017.23
2019-01-23T16:34:57.774Z,100022.09
2019-01-23T16:37:28.978Z,100026.98
2019-01-23T16:40:00.513Z,100026.72
2019-01-23T16:42:32.231Z,100023.86
2019-01-23T16:45:03.824Z,100028.88
2019-01-23T16:47:35.290Z,100032.11
2019-01-23T16:50:10.530Z,100033.64
2019-01-23T16:52:43.122Z,100041.60
2019-01-23T16:55:15.413Z,100046.45
2019-01-23T16:57:48.847Z,100045.94
2019-01-23T17:00:22.770Z,100047.34
2019-01-23T17:02:54.078Z,100046.53
2019-01-23T17:05:27.647Z,100052.83
2019-01-23T17:08:00.448Z,100055.22
2019-01-23T17:10:35.252Z,100057.27
2019-01-23T17:13:06.541Z,100060.19
2019-01-23T17:15:38.735Z,100062.88
2019-01-23T17:18:09.930Z,100069.78
2019-01-23T17:20:44.236Z,100074.25
2019-01-23T17:23:15.845Z,100079.62
2019-01-23T17:25:48.036Z,100080.28
2019-01-23T17:28:19.446Z,100083.33
2019-01-23T17:30:51.774Z,100079.17
2019-01-23T17:33:23.865Z,100086.24
2019-01-23T17:35:55.716Z,100094.16
2019-01-23T17:38:30.722Z,100095.38
2019-01-23T17:41:02.429Z,100102.69
2019-01-23T17:43:34.926Z,100102.00
2019-01-23T17:46:06.619Z,100110.36
2019-01-23T17:48:38.005Z,100116.34
2019-01-23T17:51:09.297Z,100120.30
2019-01-23T17:53:40.587Z,100124.01
2019-01-23T17:56:11.845Z,100126.67
2019-01-23T17:58:43.133Z,100129.85
2019-01-23T18:01:14.558Z,100125.72
2019-01-23T18:03:45.750Z,100136.60
2019-01-23T18:06:17.065Z,100135.41
2019-01-23T18:08:48.450Z,100135.23
2019-01-23T18:11:19.800Z,100144.83
2019-01-23T18:13:51.271Z,100147.62
2019-01-23T18:16:22.546Z,100144.64
2019-01-23T18:18:53.793Z,100151.15
2019-01-23T18:21:25.105Z,100147.12
2019-01-23T18:23:56.545Z,100154.69
2019-01-23T18:26:28.128Z,100156.61
2019-01-23T18:29:00.762Z,100162.71
2019-01-23T18:31:52.792Z,100165.59
2019-01-23T18:34:57.924Z,100165.77
2019-01-23T18:38:09.034Z,100173.05
2019-01-23T18:41:18.784Z,100178.64
2019-01-23T18:44:24.333Z,100175.38
2019-01-23T18:47:18.426Z,100184.22
2019-01-23T18:50:14.269Z,100183.25
2019-01-23T18:52:45.691Z,100195.43
2019-01-23T18:55:18.538Z,100194.52
2019-01-23T18:57:50.027Z,100199.80
2019-01-23T19:00:21.891Z,100210.83
2019-01-23T19:02:53.385Z,100215.41
2019-01-23T19:05:25.779Z,100217.84
2019-01-23T19:07:58.623Z,100221.77
2019-01-23T19:10:30.441Z,100223.42
2019-01-23T19:13:06.867Z,100228.55
2019-01-23T19:15:59.387Z,100235.52
2019-01-23T19:18:30.764Z,100239.59
2019-01-23T19:21:08.279Z,100243.44
2019-01-23T19:23:41.853Z,100243.11
2019-01-23T19:26:46.302Z,100248.47
2019-01-23T19:29:25.318Z,100252.02
2019-01-23T19:31:57.931Z,100247.80
2019-01-23T19:34:29.431Z,100254.08
2019-01-23T19:37:00.824Z,100249.68
2019-01-23T19:39:36.423Z,100254.44
2019-01-23T19:42:13.373Z,100258.44
2019-01-23T19:44:46.648Z,100257.74
2019-01-23T19:47:20.222Z,100257.59
2019-01-23T19:49:52.107Z,100259.66
2019-01-23T19:52:23.411Z,100269.14
2019-01-23T19:55:30.494Z,100264.02
2019-01-23T19:58:06.281Z,100268.19
2019-01-23T20:01:23.350Z,100272.84
2019-01-23T20:04:02.574Z,100285.23
2019-01-23T20:06:41.754Z,100282.38
2019-01-23T20:09:22.047Z,100282.88
2019-01-23T20:12:01.230Z,100277.39
2019-01-23T20:14:38.323Z,100286.52
2019-01-23T20:17:10.679Z,100293.47
2019-01-23T20:19:49.805Z,100299.12
2019-01-23T20:22:27.889Z,100297.84
2019-01-23T20:25:02.062Z,100305.31
2019-01-23T20:27:36.672Z,100293.63
2019-01-23T20:30:18.047Z,100301.39
2019-01-23T20:33:08.898Z,100308.55
2019-01-23T20:35:40.547Z,100302.90
2019-01-23T20:38:23.652Z,100312.10
2019-01-23T20:41:02.400Z,100318.66
2019-01-23T20:43:47.024Z,100330.76
2019-01-23T20:47:28.255Z,100331.27
2019-01-23T20:49:17.396Z,100331.42
2019-01-23T20:51:55.380Z,100334.13
2019-01-23T20:54:30.100Z,100342.89
2019-01-23T20:57:03.895Z,100349.45
2019-01-23T20:59:36.902Z,100345.78
2019-01-23T21:02:33.954Z,100345.61
2019-01-23T21:05:12.563Z,100355.14
2019-01-23T21:07:44.280Z,100354.59
2019-01-23T21:10:16.601Z,100360.27
2019-01-23T21:12:48.728Z,100367.05
2019-01-23T21:15:31.859Z,100359.20
2019-01-23T21:18:04.100Z,100367.67
2019-01-23T21:20:37.570Z,100368.55
2019-01-23T21:23:10.222Z,100369.69
2019-01-23T21:25:41.389Z,100375.81
2019-01-23T21:28:12.788Z,100382.96
2019-01-23T21:30:44.035Z,100381.38
2019-01-23T21:33:15.498Z,100387.28
2019-01-23T21:35:46.939Z,100379.62
2019-01-23T21:38:18.149Z,100390.06
2019-01-23T21:40:49.410Z,100389.30
2019-01-23T21:43:21.735Z,100389.08
2019-01-23T21:45:53.171Z,100387.73
2019-01-23T21:48:24.473Z,100384.17
2019-01-23T21:50:55.881Z,100383.73
2019-01-23T21:53:27.158Z,100382.78
2019-01-23T21:55:58.475Z,100383.59
2019-01-23T21:58:29.679Z,100378.23
2019-01-23T22:01:01.739Z,100379.45
2019-01-23T22:03:33.320Z,100381.06
2019-01-23T22:06:04.866Z,100381.72
2019-01-23T22:08:36.053Z,100381.87
2019-01-23T22:11:07.419Z,100387.33
2019-01-23T22:13:41.635Z,100391.48
2019-01-23T22:16:12.918Z,100385.20
2019-01-23T22:18:44.346Z,100390.66
2019-01-23T22:21:15.556Z,100392.83
2019-01-23T22:23:47.184Z,100385.31
2019-01-23T22:26:18.681Z,100387.40
2019-01-23T22:28:50.060Z,100391.80
2019-01-23T22:31:21.316Z,100392.53
2019-01-23T22:33:56.384Z,100391.03
2019-01-23T22:36:25.669Z,100388.61
2019-01-23T22:38:56.904Z,100392.64
2019-01-23T22:41:28.318Z,100393.66
2019-01-23T22:43:59.519Z,100398.98
2019-01-23T22:46:30.782Z,100402.61
2019-01-23T22:49:02.084Z,100397.22
2019-01-23T22:51:33.338Z,100396.27
2019-01-23T22:54:04.610Z,100402.45
2019-01-23T22:56:35.823Z,100405.32
2019-01-23T22:59:07.191Z,100412.03
2019-01-23T23:01:38.345Z,100406.67
2019-01-23T23:04:09.603Z,100409.56
2019-01-23T23:06:40.923Z,100408.56
2019-01-23T23:09:12.259Z,100417.34
2019-01-23T23:11:43.473Z,100419.69
2019-01-23T23:14:14.831Z,100412.63
2019-01-23T23:16:46.156Z,100412.03
2019-01-23T23:19:17.444Z,100412.73
2019-01-23T23:21:48.658Z,100410.16
2019-01-23T23:24:20.010Z,100415.95
2019-01-23T23:26:51.541Z,100412.42
2019-01-23T23:29:22.785Z,100417.34
2019-01-23T23:31:54.227Z,100414.00
2019-01-23T23:34:25.488Z,100417.63
2019-01-23T23:36:56.680Z,100413.41
2019-01-23T23:39:29.701Z,100419.20
2019-01-23T23:42:02.430Z,100413.69
2019-01-23T23:44:33.677Z,100417.69
2019-01-23T23:47:08.137Z,100411.41
2019-01-23T23:49:39.991Z,100418.52
2019-01-23T23:52:11.376Z,100419.03
2019-01-23T23:54:42.693Z,100421.78
2019-01-23T23:57:16.256Z,100427.06
2019-01-23T23:59:47.700Z,100420.64
